Flight Track Log - Related Links

Times and Time Zones

All times are in EDT time to prevent confusion due to time zone crossing. See the ASQ5861 flight status page for this flight to view local times or setup timezone preferences in your user account.

Time Position Orientation Groundspeed Altitude Reporting Facility
EDT Latitude Longitude Course Direction KTS MPH feet Rate Location/Type
Fri 07:05:51 PM 49.9333 -97.2333 147° Southeast 160 184 3,200  Level Winnipeg Center
Fri 07:06:51 PM 50.0000 -97.2000 18° North 220 253 5,700 2,650 Climbing Winnipeg Center
Fri 07:07:51 PM 50.0333 -97.1167 58° Northeast 270 311 8,500 2,600 Climbing Winnipeg Center
Fri 07:08:51 PM 49.9667 -97.0667 154° Southeast 300 345 10,900 1,750 Climbing Winnipeg Center
Fri 07:09:51 PM 49.8667 -97.0500 174° South 370 426 12,000 1,450 Climbing Winnipeg Center
Fri 07:10:00 PM 49.4627 -96.7946 150° Southeast  Level FlightAware Approximate
Fri 07:10:51 PM 49.7667 -97.0000 162° South 380 437 13,800  Level Winnipeg Center
Fri 07:11:00 PM 49.3720 -96.7053 147° Southeast  Level FlightAware Approximate
Fri 07:11:51 PM 49.6667 -96.9333 157° South 390 449 15,600  Level Winnipeg Center
Fri 07:12:51 PM 49.5667 -96.8833 162° South 390 449 17,300 1,550 Climbing Winnipeg Center
Fri 07:13:51 PM 49.4667 -96.8167 157° South 400 460 18,700 1,450 Climbing Winnipeg Center
Fri 07:14:51 PM 49.3667 -96.7167 147° Southeast 400 460 20,200 1,500 Climbing Winnipeg Center
Fri 07:15:51 PM 49.2833 -96.6000 138° Southeast 410 472 21,700 1,500 Climbing Winnipeg Center
Fri 07:16:51 PM 49.1833 -96.5000 147° Southeast 410 472 23,200 1,450 Climbing Winnipeg Center
Fri 07:17:51 PM 49.0833 -96.4333 156° South 420 483 24,600 1,450 Climbing Winnipeg Center
Fri 07:18:51 PM 48.9667 -96.3333 151° Southeast 420 483 26,100 1,450 Climbing Winnipeg Center
Fri 07:19:51 PM 48.8667 -96.2333 147° Southeast 420 483 27,500 1,400 Climbing Winnipeg Center
Fri 07:20:51 PM 48.7667 -96.1500 151° Southeast 420 483 28,900 1,450 Climbing Winnipeg Center
Fri 07:21:51 PM 48.6667 -96.0500 147° Southeast 420 483 30,400 1,263 Climbing Winnipeg Center
Fri 07:22:07 PM 48.6769 -96.0586 331° Northwest 422 486 30,500 1,077 Climbing Minneapolis Center
Fri 07:23:09 PM 48.5769 -95.9672 149° Southeast 420 483 31,800 1,366 Climbing Minneapolis Center
Fri 07:24:10 PM 48.4556 -95.8564 149° Southeast 424 488 33,300 1,317 Climbing Minneapolis Center
Fri 07:25:12 PM 48.3528 -95.7642 149° Southeast 428 493 34,500 823 Climbing Minneapolis Center
Fri 07:26:14 PM 48.2511 -95.6708 149° Southeast 427 491 35,000 242 Climbing Minneapolis Center
Fri 07:27:16 PM 48.1453 -95.5756 149° Southeast 437 503 35,000  Level Minneapolis Center
Fri 07:28:18 PM 48.0222 -95.4672 149° Southeast 466 536 35,000  Level Minneapolis Center
Fri 07:29:19 PM 47.9039 -95.3622 149° Southeast 486 559 35,000  Level Minneapolis Center
Fri 07:30:21 PM 47.7867 -95.2586 149° Southeast 492 566 35,000  Level Minneapolis Center
Fri 07:31:23 PM 47.6700 -95.1553 149° Southeast 491 565 35,000  Level Minneapolis Center
Fri 07:32:25 PM 47.5533 -95.0522 149° Southeast 490 564 35,000  Level Minneapolis Center
Fri 07:33:27 PM 47.4158 -94.9294 149° Southeast 487 560 35,000  Level Minneapolis Center
Fri 07:34:29 PM 47.2986 -94.8281 150° Southeast 490 564 35,000  Level Minneapolis Center
Fri 07:35:31 PM 47.1797 -94.7261 150° Southeast 496 571 35,000  Level Minneapolis Center
Fri 07:36:33 PM 47.0617 -94.6264 150° Southeast 494 568 35,000  Level Minneapolis Center
Fri 07:37:34 PM 46.9442 -94.5261 150° Southeast 492 566 35,000  Level Minneapolis Center
Fri 07:38:36 PM 46.8036 -94.4058 150° Southeast 492 566 35,000  Level Minneapolis Center
Fri 07:39:38 PM 46.6850 -94.3075 150° Southeast 493 567 35,000  Level Minneapolis Center
Fri 07:40:40 PM 46.5667 -94.2072 150° Southeast 493 567 35,000  Level Minneapolis Center
Fri 07:41:42 PM 46.4492 -94.1117 151° Southeast 489 563 35,000  Level Minneapolis Center
Fri 07:42:44 PM 46.3283 -94.0150 151° Southeast 495 570 35,000  Level Minneapolis Center
Fri 07:43:45 PM 46.2033 -93.9475 160° South 492 566 35,000  Level Minneapolis Center
Fri 07:44:47 PM 46.0528 -93.8606 158° South 487 560 35,000  Level Minneapolis Center
Fri 07:45:49 PM 45.9264 -93.7903 159° South 488 562 35,000  Level Minneapolis Center
Fri 07:46:51 PM 45.7992 -93.7228 160° South 489 563 35,000  Level Minneapolis Center
Fri 07:47:53 PM 45.6703 -93.6550 160° South 490 564 35,000  Level Minneapolis Center
Fri 07:48:55 PM 45.5439 -93.5872 159° South 490 564 35,000  Level Minneapolis Center
Fri 07:49:56 PM 45.4164 -93.5183 159° South 491 565 35,000  Level Minneapolis Center
Fri 07:50:58 PM 45.2647 -93.4369 159° South 489 563 35,000  Level Minneapolis Center
Fri 07:52:00 PM 45.1542 -93.3247 144° Southeast 502 578 35,000  Level Minneapolis Center
Fri 07:53:02 PM 45.0775 -93.1625 124° Southeast 494 568 35,000  Level Minneapolis Center
Fri 07:54:04 PM 44.9989 -92.9994 124° Southeast 496 571 35,000  Level Minneapolis Center
Fri 07:55:05 PM 44.9214 -92.8361 124° Southeast 496 571 35,000  Level Minneapolis Center
Fri 07:56:07 PM 44.8444 -92.6742 124° Southeast 496 571 35,000  Level Minneapolis Center
Fri 07:57:09 PM 44.7675 -92.5147 124° Southeast 492 566 35,000  Level Minneapolis Center
Fri 07:58:11 PM 44.6889 -92.3550 125° Southeast 495 570 35,000  Level Minneapolis Center
Fri 07:59:13 PM 44.5958 -92.1664 125° Southeast 493 567 35,000  Level Minneapolis Center
Fri 08:00:14 PM 44.5203 -92.0094 124° Southeast 487 560 35,000  Level Minneapolis Center
Fri 08:01:16 PM 44.4428 -91.8542 125° Southeast 489 563 35,000  Level Minneapolis Center
Fri 08:02:18 PM 44.3658 -91.6981 125° Southeast 488 562 35,000  Level Minneapolis Center
Fri 08:03:20 PM 44.2883 -91.5458 125° Southeast 485 558 35,000  Level Minneapolis Center
Fri 08:04:21 PM 44.2119 -91.3919 125° Southeast 484 557 35,000  Level Minneapolis Center
Fri 08:05:23 PM 44.1239 -91.2175 125° Southeast 486 559 35,000 -145 Level Minneapolis Center
Fri 08:06:25 PM 44.0469 -91.0650 125° Southeast 485 558 34,700 -780 Descending Minneapolis Center
Fri 08:07:26 PM 43.9694 -90.9122 125° Southeast 486 559 33,400 -1,659 Descending Minneapolis Center
Fri 08:08:28 PM 43.8933 -90.7644 126° Southeast 476 548 31,300 -1,161 Descending Minneapolis Center
Fri 08:09:30 PM 43.8183 -90.6178 125° Southeast 470 541 31,000 -145 Descending Minneapolis Center
Fri 08:10:32 PM 43.7447 -90.4739 125° Southeast 461 531 31,000  Level Minneapolis Center
Fri 08:11:33 PM 43.6550 -90.3031 126° Southeast 460 529 31,000  Level Minneapolis Center
Fri 08:12:35 PM 43.5883 -90.1753 126° Southeast 456 525 31,000 -145 Level Minneapolis Center
Fri 08:13:37 PM 43.5025 -90.0122 126° Southeast 451 519 30,700 -1,306 Descending Minneapolis Center
Fri 08:14:39 PM 43.4267 -89.8681 126° Southeast 464 534 28,300 -2,243 Descending Minneapolis Center
Fri 08:15:32 PM 43.3628 -89.7494 127° Southeast 464 534 26,400 -2,191 Descending Chicago Center
Fri 08:16:34 PM 43.2886 -89.6103 126° Southeast 456 525 24,100 -2,419 Descending Chicago Center
Fri 08:17:36 PM 43.2033 -89.4486 126° Southeast 451 519 21,400 -2,516 Descending Chicago Center
Fri 08:18:38 PM 43.1136 -89.3325 137° Southeast 453 521 18,900 -2,293 Descending Chicago Center
Fri 08:19:39 PM 43.0044 -89.2744 159° South 431 496 16,700 -1,659 Descending Chicago Center
Fri 08:20:41 PM 42.9178 -89.1728 139° Southeast 413 475 15,500 -1,161 Descending Chicago Center
Fri 08:21:43 PM 42.8358 -89.0700 137° Southeast 403 464 14,300 -1,065 Descending Chicago Center
Fri 08:22:45 PM 42.7539 -88.9669 137° Southeast 401 461 13,300 -581 Descending Chicago Center
Fri 08:23:47 PM 42.6553 -88.8464 138° Southeast 407 468 13,100 -97 Descending Chicago Center
Fri 08:24:49 PM 42.5739 -88.7436 137° Southeast 403 464 13,100 -581 Level Chicago Center
Fri 08:25:51 PM 42.4914 -88.6450 139° Southeast 399 459 11,900 -1,317 Descending Chicago Center
Fri 08:26:52 PM 42.4147 -88.5494 137° Southeast 383 441 10,400 -927 Descending Chicago Center
Fri 08:27:54 PM 42.3572 -88.4375 125° Southeast 374 430 10,000 -194 Descending Chicago Center
Fri 08:28:56 PM 42.2925 -88.3097 124° Southeast 366 421 10,000  Level Chicago Center
Fri 08:29:58 PM 42.2281 -88.2019 129° Southeast 370 426 10,000 -48 Level Chicago Center
Fri 08:31:00 PM 42.1586 -88.1056 134° Southeast 360 414 9,900 -435 Descending Chicago Center
Fri 08:32:02 PM 42.1006 -88.0286 135° Southeast 297 342 9,100 -1,063 Descending Chicago Center
Fri 08:32:19 PM 42.1000 -87.9833 91° East 291 335 8,500 -1,016 Descending Chicago TRACON
Fri 08:34:06 PM 42.0914 -87.7881 93° East 294 338 7,000 -639 Descending Chicago Center
Fri 08:35:08 PM 42.0908 -87.6872 90° East 275 316 6,700 -484 Descending Chicago Center
Fri 08:36:10 PM 42.0908 -87.5911 90° East 261 300 6,000 -774 Descending Chicago Center
Fri 08:37:12 PM 42.0908 -87.4992 90° East 249 287 5,100 -774 Descending Chicago Center
Fri 08:38:14 PM 42.0900 -87.4031 91° East 255 293 4,400 -585 Descending Chicago Center
Fri 08:39:15 PM 42.0450 -87.3575 143° Southeast 239 275 3,900 -244 Descending Chicago Center
Fri 08:40:17 PM 42.0053 -87.4144 227° Southwest 202 232 3,900  Level Chicago Center
Fri 08:41:19 PM 42.0019 -87.4814 266° West 192 221 3,900  Level Chicago Center
Fri 08:42:21 PM 42.0028 -87.5494 271° West 186 214 3,900 -48 Level Chicago Center
Fri 08:43:23 PM 42.0017 -87.6156 269° West 183 211 3,800 50 Descending Chicago Center
Fri 08:44:20 PM 42.0000 -87.6833 268° West 149 171 4,000 -308 Climbing Chicago TRACON
Fri 08:45:20 PM 42.0000 -87.7333 270° West 159 183 3,200 -754 Descending Chicago TRACON
Fri 08:47:31 PM 42.0031 -87.8444 272° West 143 165 1,600 -700 Descending Chicago Center
Fri 08:48:20 PM 42.0000 -87.8833 264° West 129 148 1,100 -612 Descending Chicago TRACON

Login

Don't have an account? Register now (free) for customized features, flight alerts, and more!